sensor_id;sensor_type;location;lat;lon;timestamp;temperature;humidity
2363;DHT22;64265;51.664;7.626;2024-03-29T00:00:43;21.90;69.30
2363;DHT22;64265;51.664;7.626;2024-03-29T00:03:09;21.90;69.80
2363;DHT22;64265;51.664;7.626;2024-03-29T00:05:35;21.80;69.00
2363;DHT22;64265;51.664;7.626;2024-03-29T00:08:03;21.80;70.60
2363;DHT22;64265;51.664;7.626;2024-03-29T00:10:49;21.80;69.90
2363;DHT22;64265;51.664;7.626;2024-03-29T00:13:16;21.70;68.90
2363;DHT22;64265;51.664;7.626;2024-03-29T00:15:44;21.70;70.00
2363;DHT22;64265;51.664;7.626;2024-03-29T00:18:12;21.60;69.90
2363;DHT22;64265;51.664;7.626;2024-03-29T00:20:38;21.60;70.20
2363;DHT22;64265;51.664;7.626;2024-03-29T00:23:15;21.60;70.70
2363;DHT22;64265;51.664;7.626;2024-03-29T00:25:48;21.60;70.60
2363;DHT22;64265;51.664;7.626;2024-03-29T00:28:13;21.60;68.50
2363;DHT22;64265;51.664;7.626;2024-03-29T00:30:39;21.50;68.30
2363;DHT22;64265;51.664;7.626;2024-03-29T00:33:11;21.50;69.90
2363;DHT22;64265;51.664;7.626;2024-03-29T00:35:41;21.50;67.70
2363;DHT22;64265;51.664;7.626;2024-03-29T00:38:11;21.50;71.00
2363;DHT22;64265;51.664;7.626;2024-03-29T00:40:38;21.40;70.60
2363;DHT22;64265;51.664;7.626;2024-03-29T00:43:10;21.40;69.70
2363;DHT22;64265;51.664;7.626;2024-03-29T00:45:39;21.30;68.10
2363;DHT22;64265;51.664;7.626;2024-03-29T00:48:11;21.30;69.30
2363;DHT22;64265;51.664;7.626;2024-03-29T00:50:42;21.30;70.90
2363;DHT22;64265;51.664;7.626;2024-03-29T00:53:15;21.20;70.80
2363;DHT22;64265;51.664;7.626;2024-03-29T00:55:40;21.20;71.40
2363;DHT22;64265;51.664;7.626;2024-03-29T00:58:12;21.10;70.10
2363;DHT22;64265;51.664;7.626;2024-03-29T01:00:39;21.10;71.50
2363;DHT22;64265;51.664;7.626;2024-03-29T01:03:05;21.10;72.00
2363;DHT22;64265;51.664;7.626;2024-03-29T01:05:31;21.10;71.10
2363;DHT22;64265;51.664;7.626;2024-03-29T01:07:59;21.10;71.80
2363;DHT22;64265;51.664;7.626;2024-03-29T01:10:30;21.10;71.50
2363;DHT22;64265;51.664;7.626;2024-03-29T01:13:00;21.10;72.00
2363;DHT22;64265;51.664;7.626;2024-03-29T01:15:29;21.00;70.00
2363;DHT22;64265;51.664;7.626;2024-03-29T01:18:04;20.90;69.70
2363;DHT22;64265;51.664;7.626;2024-03-29T01:20:29;20.80;68.20
2363;DHT22;64265;51.664;7.626;2024-03-29T01:22:55;20.80;71.30
2363;DHT22;64265;51.664;7.626;2024-03-29T01:25:23;20.80;72.30
2363;DHT22;64265;51.664;7.626;2024-03-29T01:27:49;20.90;72.60
2363;DHT22;64265;51.664;7.626;2024-03-29T01:30:19;20.90;71.50
2363;DHT22;64265;51.664;7.626;2024-03-29T01:32:46;20.80;70.60
2363;DHT22;64265;51.664;7.626;2024-03-29T01:35:17;20.80;72.90
2363;DHT22;64265;51.664;7.626;2024-03-29T01:37:43;20.80;73.00
2363;DHT22;64265;51.664;7.626;2024-03-29T01:40:18;20.70;72.90
2363;DHT22;64265;51.664;7.626;2024-03-29T01:42:53;20.70;73.40
2363;DHT22;64265;51.664;7.626;2024-03-29T01:45:18;20.70;73.60
2363;DHT22;64265;51.664;7.626;2024-03-29T01:47:56;20.70;73.70
2363;DHT22;64265;51.664;7.626;2024-03-29T01:50:31;20.70;73.70
2363;DHT22;64265;51.664;7.626;2024-03-29T01:52:58;20.70;73.90
2363;DHT22;64265;51.664;7.626;2024-03-29T01:55:25;20.60;73.70
2363;DHT22;64265;51.664;7.626;2024-03-29T01:58:04;20.60;73.90
2363;DHT22;64265;51.664;7.626;2024-03-29T02:00:37;20.60;74.10
2363;DHT22;64265;51.664;7.626;2024-03-29T02:03:24;20.60;74.10
2363;DHT22;64265;51.664;7.626;2024-03-29T02:06:02;20.50;74.30
2363;DHT22;64265;51.664;7.626;2024-03-29T02:08:30;20.50;74.40
2363;DHT22;64265;51.664;7.626;2024-03-29T02:10:57;20.50;74.50
2363;DHT22;64265;51.664;7.626;2024-03-29T02:13:26;20.50;74.60
2363;DHT22;64265;51.664;7.626;2024-03-29T02:16:09;20.40;73.90
2363;DHT22;64265;51.664;7.626;2024-03-29T02:18:44;20.40;74.70
2363;DHT22;64265;51.664;7.626;2024-03-29T02:21:12;20.40;73.10
2363;DHT22;64265;51.664;7.626;2024-03-29T02:23:43;20.40;74.90
2363;DHT22;64265;51.664;7.626;2024-03-29T02:26:27;20.40;74.90
2363;DHT22;64265;51.664;7.626;2024-03-29T02:29:03;20.40;74.30
2363;DHT22;64265;51.664;7.626;2024-03-29T02:31:36;20.40;75.10
2363;DHT22;64265;51.664;7.626;2024-03-29T02:34:05;20.40;75.00
2363;DHT22;64265;51.664;7.626;2024-03-29T02:36:38;20.30;73.50
2363;DHT22;64265;51.664;7.626;2024-03-29T02:39:07;20.30;75.20
2363;DHT22;64265;51.664;7.626;2024-03-29T02:41:35;20.30;75.40
2363;DHT22;64265;51.664;7.626;2024-03-29T02:44:06;20.30;75.50
2363;DHT22;64265;51.664;7.626;2024-03-29T02:46:36;20.30;75.70
2363;DHT22;64265;51.664;7.626;2024-03-29T02:49:11;20.20;75.70
2363;DHT22;64265;51.664;7.626;2024-03-29T02:51:41;20.20;75.90
2363;DHT22;64265;51.664;7.626;2024-03-29T02:54:24;20.10;75.40
2363;DHT22;64265;51.664;7.626;2024-03-29T02:56:54;20.10;75.90
2363;DHT22;64265;51.664;7.626;2024-03-29T02:59:31;20.10;76.00
2363;DHT22;64265;51.664;7.626;2024-03-29T03:02:00;20.10;75.90
2363;DHT22;64265;51.664;7.626;2024-03-29T03:04:32;20.10;76.20
2363;DHT22;64265;51.664;7.626;2024-03-29T03:07:08;20.10;76.30
2363;DHT22;64265;51.664;7.626;2024-03-29T03:09:54;20.10;75.90
2363;DHT22;64265;51.664;7.626;2024-03-29T03:12:57;20.10;76.50
2363;DHT22;64265;51.664;7.626;2024-03-29T03:15:31;20.00;75.10
2363;DHT22;64265;51.664;7.626;2024-03-29T03:17:59;20.10;76.50
2363;DHT22;64265;51.664;7.626;2024-03-29T03:20:32;20.00;76.50
2363;DHT22;64265;51.664;7.626;2024-03-29T03:23:16;20.00;76.60
2363;DHT22;64265;51.664;7.626;2024-03-29T03:25:44;20.00;76.20
2363;DHT22;64265;51.664;7.626;2024-03-29T03:28:24;19.90;76.70
2363;DHT22;64265;51.664;7.626;2024-03-29T03:31:03;20.00;76.70
2363;DHT22;64265;51.664;7.626;2024-03-29T03:33:34;19.90;76.90
2363;DHT22;64265;51.664;7.626;2024-03-29T03:36:06;19.90;77.00
2363;DHT22;64265;51.664;7.626;2024-03-29T03:38:33;19.90;77.00
2363;DHT22;64265;51.664;7.626;2024-03-29T03:41:06;19.80;76.70
2363;DHT22;64265;51.664;7.626;2024-03-29T03:43:42;19.80;77.10
2363;DHT22;64265;51.664;7.626;2024-03-29T03:46:19;19.80;76.10
2363;DHT22;64265;51.664;7.626;2024-03-29T03:48:52;19.80;76.00
2363;DHT22;64265;51.664;7.626;2024-03-29T03:51:24;19.80;76.40
2363;DHT22;64265;51.664;7.626;2024-03-29T03:53:56;19.70;74.70
2363;DHT22;64265;51.664;7.626;2024-03-29T03:56:27;19.70;74.80
2363;DHT22;64265;51.664;7.626;2024-03-29T03:59:01;19.70;77.60
2363;DHT22;64265;51.664;7.626;2024-03-29T04:01:33;19.80;75.50
2363;DHT22;64265;51.664;7.626;2024-03-29T04:04:04;19.70;75.10
2363;DHT22;64265;51.664;7.626;2024-03-29T04:06:33;19.70;77.10
2363;DHT22;64265;51.664;7.626;2024-03-29T04:09:09;19.70;77.30
2363;DHT22;64265;51.664;7.626;2024-03-29T04:11:39;19.70;77.40
2363;DHT22;64265;51.664;7.626;2024-03-29T04:14:11;19.70;77.60
2363;DHT22;64265;51.664;7.626;2024-03-29T04:16:40;19.70;77.60
2363;DHT22;64265;51.664;7.626;2024-03-29T04:19:20;19.70;77.40
2363;DHT22;64265;51.664;7.626;2024-03-29T04:21:45;19.70;77.40
2363;DHT22;64265;51.664;7.626;2024-03-29T04:26:58;19.70;77.80
2363;DHT22;64265;51.664;7.626;2024-03-29T04:29:34;19.70;77.50
2363;DHT22;64265;51.664;7.626;2024-03-29T04:32:02;19.60;77.30
2363;DHT22;64265;51.664;7.626;2024-03-29T04:34:30;19.60;76.40
2363;DHT22;64265;51.664;7.626;2024-03-29T04:37:00;19.60;77.10
2363;DHT22;64265;51.664;7.626;2024-03-29T04:39:43;19.60;77.80
2363;DHT22;64265;51.664;7.626;2024-03-29T04:42:15;19.60;78.00
2363;DHT22;64265;51.664;7.626;2024-03-29T04:44:46;19.60;77.50
2363;DHT22;64265;51.664;7.626;2024-03-29T04:47:18;19.60;78.20
2363;DHT22;64265;51.664;7.626;2024-03-29T04:49:48;19.60;77.60
2363;DHT22;64265;51.664;7.626;2024-03-29T04:52:29;19.60;78.20
2363;DHT22;64265;51.664;7.626;2024-03-29T04:54:57;19.60;78.20
2363;DHT22;64265;51.664;7.626;2024-03-29T04:57:31;19.60;78.40
2363;DHT22;64265;51.664;7.626;2024-03-29T05:00:00;19.60;78.40
2363;DHT22;64265;51.664;7.626;2024-03-29T05:02:30;19.50;78.20
2363;DHT22;64265;51.664;7.626;2024-03-29T05:05:01;19.50;78.40
2363;DHT22;64265;51.664;7.626;2024-03-29T05:07:41;19.50;78.50
2363;DHT22;64265;51.664;7.626;2024-03-29T05:10:10;19.50;78.60
2363;DHT22;64265;51.664;7.626;2024-03-29T05:12:40;19.50;78.40
2363;DHT22;64265;51.664;7.626;2024-03-29T05:15:11;19.50;76.10
2363;DHT22;64265;51.664;7.626;2024-03-29T05:17:46;19.50;78.40
2363;DHT22;64265;51.664;7.626;2024-03-29T05:20:17;19.50;78.20
2363;DHT22;64265;51.664;7.626;2024-03-29T05:22:51;19.40;78.20
2363;DHT22;64265;51.664;7.626;2024-03-29T05:25:24;19.50;78.90
2363;DHT22;64265;51.664;7.626;2024-03-29T05:27:52;19.50;78.80
2363;DHT22;64265;51.664;7.626;2024-03-29T05:30:22;19.50;79.00
2363;DHT22;64265;51.664;7.626;2024-03-29T05:32:55;19.50;79.00
2363;DHT22;64265;51.664;7.626;2024-03-29T05:35:24;19.50;79.00
2363;DHT22;64265;51.664;7.626;2024-03-29T05:37:54;19.50;79.00
2363;DHT22;64265;51.664;7.626;2024-03-29T05:40:22;19.40;79.00
2363;DHT22;64265;51.664;7.626;2024-03-29T05:42:50;19.40;79.10
2363;DHT22;64265;51.664;7.626;2024-03-29T05:45:27;19.40;79.20
2363;DHT22;64265;51.664;7.626;2024-03-29T05:47:58;19.40;79.30
2363;DHT22;64265;51.664;7.626;2024-03-29T05:50:32;19.40;79.30
2363;DHT22;64265;51.664;7.626;2024-03-29T05:53:04;19.40;79.30
2363;DHT22;64265;51.664;7.626;2024-03-29T05:55:39;19.40;79.40
2363;DHT22;64265;51.664;7.626;2024-03-29T05:58:19;19.30;79.30
2363;DHT22;64265;51.664;7.626;2024-03-29T06:01:04;19.30;79.40
2363;DHT22;64265;51.664;7.626;2024-03-29T06:03:35;19.40;79.70
2363;DHT22;64265;51.664;7.626;2024-03-29T06:06:06;19.40;79.70
2363;DHT22;64265;51.664;7.626;2024-03-29T06:08:47;19.40;79.60
2363;DHT22;64265;51.664;7.626;2024-03-29T06:11:17;19.40;79.70
2363;DHT22;64265;51.664;7.626;2024-03-29T06:13:44;19.30;79.50
2363;DHT22;64265;51.664;7.626;2024-03-29T06:16:33;19.30;79.60
2363;DHT22;64265;51.664;7.626;2024-03-29T06:19:21;19.30;79.60
2363;DHT22;64265;51.664;7.626;2024-03-29T06:22:04;19.30;79.60
2363;DHT22;64265;51.664;7.626;2024-03-29T06:24:37;19.30;79.70
2363;DHT22;64265;51.664;7.626;2024-03-29T06:27:08;19.30;79.70
2363;DHT22;64265;51.664;7.626;2024-03-29T06:29:41;19.20;79.70
2363;DHT22;64265;51.664;7.626;2024-03-29T06:32:09;19.20;79.70
2363;DHT22;64265;51.664;7.626;2024-03-29T06:34:35;19.20;79.70
2363;DHT22;64265;51.664;7.626;2024-03-29T06:37:07;19.20;79.30
2363;DHT22;64265;51.664;7.626;2024-03-29T06:39:36;19.20;79.90
2363;DHT22;64265;51.664;7.626;2024-03-29T06:42:03;19.30;80.10
2363;DHT22;64265;51.664;7.626;2024-03-29T06:44:34;19.20;79.90
2363;DHT22;64265;51.664;7.626;2024-03-29T06:47:19;19.20;79.90
2363;DHT22;64265;51.664;7.626;2024-03-29T06:49:46;19.20;79.90
2363;DHT22;64265;51.664;7.626;2024-03-29T06:52:27;19.20;79.90
2363;DHT22;64265;51.664;7.626;2024-03-29T06:54:56;19.20;80.10
2363;DHT22;64265;51.664;7.626;2024-03-29T06:57:26;19.20;80.20
2363;DHT22;64265;51.664;7.626;2024-03-29T06:59:58;19.20;80.20
2363;DHT22;64265;51.664;7.626;2024-03-29T07:02:29;19.20;80.30
2363;DHT22;64265;51.664;7.626;2024-03-29T07:05:01;19.20;80.20
2363;DHT22;64265;51.664;7.626;2024-03-29T07:07:39;19.20;80.40
2363;DHT22;64265;51.664;7.626;2024-03-29T07:10:16;19.20;80.50
2363;DHT22;64265;51.664;7.626;2024-03-29T07:12:42;19.20;80.40
2363;DHT22;64265;51.664;7.626;2024-03-29T07:15:12;19.20;80.10
2363;DHT22;64265;51.664;7.626;2024-03-29T07:17:45;19.20;79.90
2363;DHT22;64265;51.664;7.626;2024-03-29T07:20:30;19.20;79.90
2363;DHT22;64265;51.664;7.626;2024-03-29T07:23:10;19.10;79.80
2363;DHT22;64265;51.664;7.626;2024-03-29T07:25:40;19.10;79.60
2363;DHT22;64265;51.664;7.626;2024-03-29T07:28:10;19.10;79.50
2363;DHT22;64265;51.664;7.626;2024-03-29T07:30:40;19.10;79.40
2363;DHT22;64265;51.664;7.626;2024-03-29T07:33:23;19.10;79.40
2363;DHT22;64265;51.664;7.626;2024-03-29T07:36:02;19.10;78.40
2363;DHT22;64265;51.664;7.626;2024-03-29T07:38:35;19.20;79.50
2363;DHT22;64265;51.664;7.626;2024-03-29T07:41:10;19.30;79.10
2363;DHT22;64265;51.664;7.626;2024-03-29T07:43:55;19.50;78.00
2363;DHT22;64265;51.664;7.626;2024-03-29T07:46:27;19.60;77.10
2363;DHT22;64265;51.664;7.626;2024-03-29T07:49:03;19.70;77.50
2363;DHT22;64265;51.664;7.626;2024-03-29T07:51:31;19.80;77.30
2363;DHT22;64265;51.664;7.626;2024-03-29T07:54:07;19.80;77.20
2363;DHT22;64265;51.664;7.626;2024-03-29T07:56:34;19.80;77.10
2363;DHT22;64265;51.664;7.626;2024-03-29T07:59:01;19.80;77.00
2363;DHT22;64265;51.664;7.626;2024-03-29T08:01:31;19.80;77.00
2363;DHT22;64265;51.664;7.626;2024-03-29T08:04:03;19.80;77.00
2363;DHT22;64265;51.664;7.626;2024-03-29T08:06:30;19.80;77.10
2363;DHT22;64265;51.664;7.626;2024-03-29T08:08:58;19.80;77.10
2363;DHT22;64265;51.664;7.626;2024-03-29T08:11:29;19.80;77.00
2363;DHT22;64265;51.664;7.626;2024-03-29T08:13:58;19.80;76.80
2363;DHT22;64265;51.664;7.626;2024-03-29T08:16:32;19.90;76.80
2363;DHT22;64265;51.664;7.626;2024-03-29T08:19:09;19.90;76.20
2363;DHT22;64265;51.664;7.626;2024-03-29T08:21:37;19.90;76.50
2363;DHT22;64265;51.664;7.626;2024-03-29T08:24:04;19.90;76.60
2363;DHT22;64265;51.664;7.626;2024-03-29T08:26:41;20.00;76.60
2363;DHT22;64265;51.664;7.626;2024-03-29T08:29:11;20.10;76.40
2363;DHT22;64265;51.664;7.626;2024-03-29T08:31:38;20.10;76.00
2363;DHT22;64265;51.664;7.626;2024-03-29T08:34:13;20.10;75.90
2363;DHT22;64265;51.664;7.626;2024-03-29T08:36:41;20.10;75.60
2363;DHT22;64265;51.664;7.626;2024-03-29T08:39:13;20.10;75.70
2363;DHT22;64265;51.664;7.626;2024-03-29T08:41:42;20.10;75.60
2363;DHT22;64265;51.664;7.626;2024-03-29T08:44:12;20.10;75.20
2363;DHT22;64265;51.664;7.626;2024-03-29T08:46:48;20.10;75.50
2363;DHT22;64265;51.664;7.626;2024-03-29T08:49:23;20.20;75.60
2363;DHT22;64265;51.664;7.626;2024-03-29T08:51:58;20.20;75.40
2363;DHT22;64265;51.664;7.626;2024-03-29T08:54:37;20.20;75.40
2363;DHT22;64265;51.664;7.626;2024-03-29T08:57:09;20.20;75.30
2363;DHT22;64265;51.664;7.626;2024-03-29T08:59:41;20.20;76.00
2363;DHT22;64265;51.664;7.626;2024-03-29T09:02:09;20.20;75.10
2363;DHT22;64265;51.664;7.626;2024-03-29T09:04:42;20.30;75.20
2363;DHT22;64265;51.664;7.626;2024-03-29T09:07:09;20.20;74.90
2363;DHT22;64265;51.664;7.626;2024-03-29T09:09:42;20.30;75.40
2363;DHT22;64265;51.664;7.626;2024-03-29T09:12:13;20.40;75.30
2363;DHT22;64265;51.664;7.626;2024-03-29T09:14:47;20.50;75.30
2363;DHT22;64265;51.664;7.626;2024-03-29T09:17:15;20.60;75.30
2363;DHT22;64265;51.664;7.626;2024-03-29T09:19:43;20.70;75.00
2363;DHT22;64265;51.664;7.626;2024-03-29T09:22:16;20.70;75.10
2363;DHT22;64265;51.664;7.626;2024-03-29T09:24:45;20.70;74.80
2363;DHT22;64265;51.664;7.626;2024-03-29T09:27:14;20.80;74.90
2363;DHT22;64265;51.664;7.626;2024-03-29T09:29:41;20.80;74.60
2363;DHT22;64265;51.664;7.626;2024-03-29T09:32:12;20.90;74.50
2363;DHT22;64265;51.664;7.626;2024-03-29T09:34:46;20.90;74.20
2363;DHT22;64265;51.664;7.626;2024-03-29T09:37:12;21.00;74.00
2363;DHT22;64265;51.664;7.626;2024-03-29T09:39:45;21.10;73.90
2363;DHT22;64265;51.664;7.626;2024-03-29T09:42:15;21.10;73.60
2363;DHT22;64265;51.664;7.626;2024-03-29T09:44:47;21.20;73.60
2363;DHT22;64265;51.664;7.626;2024-03-29T09:47:18;21.20;73.30
2363;DHT22;64265;51.664;7.626;2024-03-29T09:49:56;21.20;73.10
2363;DHT22;64265;51.664;7.626;2024-03-29T09:52:28;21.20;72.90
2363;DHT22;64265;51.664;7.626;2024-03-29T09:55:07;21.20;72.60
2363;DHT22;64265;51.664;7.626;2024-03-29T09:57:34;21.20;72.90
2363;DHT22;64265;51.664;7.626;2024-03-29T10:00:11;21.30;72.80
2363;DHT22;64265;51.664;7.626;2024-03-29T10:02:43;21.30;72.60
2363;DHT22;64265;51.664;7.626;2024-03-29T10:05:16;21.30;72.40
2363;DHT22;64265;51.664;7.626;2024-03-29T10:07:46;21.30;72.30
2363;DHT22;64265;51.664;7.626;2024-03-29T10:10:25;21.30;72.00
2363;DHT22;64265;51.664;7.626;2024-03-29T10:12:54;21.40;71.90
2363;DHT22;64265;51.664;7.626;2024-03-29T10:15:22;21.40;71.80
2363;DHT22;64265;51.664;7.626;2024-03-29T10:17:55;21.50;71.60
2363;DHT22;64265;51.664;7.626;2024-03-29T10:20:29;21.50;71.60
2363;DHT22;64265;51.664;7.626;2024-03-29T10:22:57;21.60;71.40
2363;DHT22;64265;51.664;7.626;2024-03-29T10:25:37;21.60;71.20
2363;DHT22;64265;51.664;7.626;2024-03-29T10:28:05;21.60;71.00
2363;DHT22;64265;51.664;7.626;2024-03-29T10:30:33;21.70;70.90
2363;DHT22;64265;51.664;7.626;2024-03-29T10:33:03;21.80;70.70
2363;DHT22;64265;51.664;7.626;2024-03-29T10:35:35;21.80;70.50
2363;DHT22;64265;51.664;7.626;2024-03-29T10:38:02;21.90;70.40
2363;DHT22;64265;51.664;7.626;2024-03-29T10:40:36;21.90;70.10
2363;DHT22;64265;51.664;7.626;2024-03-29T10:43:08;21.80;69.70
2363;DHT22;64265;51.664;7.626;2024-03-29T10:45:39;21.90;70.00
2363;DHT22;64265;51.664;7.626;2024-03-29T10:48:09;21.90;69.90
2363;DHT22;64265;51.664;7.626;2024-03-29T10:50:48;22.00;69.70
2363;DHT22;64265;51.664;7.626;2024-03-29T10:53:17;22.00;69.70
2363;DHT22;64265;51.664;7.626;2024-03-29T10:55:48;22.00;69.50
2363;DHT22;64265;51.664;7.626;2024-03-29T10:58:35;22.10;69.40
2363;DHT22;64265;51.664;7.626;2024-03-29T11:01:11;22.10;69.30
2363;DHT22;64265;51.664;7.626;2024-03-29T11:03:44;22.10;68.90
2363;DHT22;64265;51.664;7.626;2024-03-29T11:06:28;22.20;69.20
2363;DHT22;64265;51.664;7.626;2024-03-29T11:09:01;22.20;69.20
2363;DHT22;64265;51.664;7.626;2024-03-29T11:11:32;22.20;69.60
2363;DHT22;64265;51.664;7.626;2024-03-29T11:14:12;22.30;69.60
2363;DHT22;64265;51.664;7.626;2024-03-29T11:16:43;22.30;69.40
2363;DHT22;64265;51.664;7.626;2024-03-29T11:19:13;22.30;69.50
2363;DHT22;64265;51.664;7.626;2024-03-29T11:21:57;22.30;69.60
2363;DHT22;64265;51.664;7.626;2024-03-29T11:27:33;22.50;69.90
2363;DHT22;64265;51.664;7.626;2024-03-29T11:30:18;22.60;69.90
2363;DHT22;64265;51.664;7.626;2024-03-29T11:32:53;22.60;69.70
2363;DHT22;64265;51.664;7.626;2024-03-29T11:35:29;22.70;69.50
2363;DHT22;64265;51.664;7.626;2024-03-29T11:38:05;22.70;69.70
2363;DHT22;64265;51.664;7.626;2024-03-29T11:40:38;22.80;69.60
2363;DHT22;64265;51.664;7.626;2024-03-29T11:43:11;22.80;69.40
2363;DHT22;64265;51.664;7.626;2024-03-29T11:45:47;22.80;69.60
2363;DHT22;64265;51.664;7.626;2024-03-29T11:48:25;22.80;69.70
2363;DHT22;64265;51.664;7.626;2024-03-29T11:51:06;22.80;69.30
2363;DHT22;64265;51.664;7.626;2024-03-29T11:53:46;22.90;69.60
2363;DHT22;64265;51.664;7.626;2024-03-29T11:56:16;22.90;69.60
2363;DHT22;64265;51.664;7.626;2024-03-29T11:58:47;22.90;69.50
2363;DHT22;64265;51.664;7.626;2024-03-29T12:01:24;22.90;69.50
2363;DHT22;64265;51.664;7.626;2024-03-29T12:03:58;23.00;69.30
2363;DHT22;64265;51.664;7.626;2024-03-29T12:06:31;23.00;69.30
2363;DHT22;64265;51.664;7.626;2024-03-29T12:08:59;23.00;69.30
2363;DHT22;64265;51.664;7.626;2024-03-29T12:11:35;23.10;69.30
2363;DHT22;64265;51.664;7.626;2024-03-29T12:14:14;23.10;68.20
2363;DHT22;64265;51.664;7.626;2024-03-29T12:16:50;23.10;69.20
2363;DHT22;64265;51.664;7.626;2024-03-29T12:19:28;23.10;68.10
2363;DHT22;64265;51.664;7.626;2024-03-29T12:21:58;23.10;68.80
2363;DHT22;64265;51.664;7.626;2024-03-29T12:24:33;23.10;68.80
2363;DHT22;64265;51.664;7.626;2024-03-29T12:27:04;23.20;69.00
2363;DHT22;64265;51.664;7.626;2024-03-29T12:29:40;23.20;68.90
2363;DHT22;64265;51.664;7.626;2024-03-29T12:32:22;23.20;68.90
2363;DHT22;64265;51.664;7.626;2024-03-29T12:35:07;23.20;68.60
2363;DHT22;64265;51.664;7.626;2024-03-29T12:37:46;23.30;68.90
2363;DHT22;64265;51.664;7.626;2024-03-29T12:40:31;23.30;68.90
2363;DHT22;64265;51.664;7.626;2024-03-29T12:43:07;23.30;68.80
2363;DHT22;64265;51.664;7.626;2024-03-29T12:45:43;23.40;68.80
2363;DHT22;64265;51.664;7.626;2024-03-29T12:48:39;23.40;68.70
2363;DHT22;64265;51.664;7.626;2024-03-29T12:51:20;23.40;68.50
2363;DHT22;64265;51.664;7.626;2024-03-29T12:53:51;23.50;68.70
2363;DHT22;64265;51.664;7.626;2024-03-29T12:56:30;23.50;68.50
2363;DHT22;64265;51.664;7.626;2024-03-29T12:59:03;23.50;68.50
2363;DHT22;64265;51.664;7.626;2024-03-29T13:01:31;23.50;68.40
2363;DHT22;64265;51.664;7.626;2024-03-29T13:04:08;23.50;68.30
2363;DHT22;64265;51.664;7.626;2024-03-29T13:06:44;23.50;68.10
2363;DHT22;64265;51.664;7.626;2024-03-29T13:09:15;23.50;68.20
2363;DHT22;64265;51.664;7.626;2024-03-29T13:11:53;23.50;68.20
2363;DHT22;64265;51.664;7.626;2024-03-29T13:14:31;23.50;67.90
2363;DHT22;64265;51.664;7.626;2024-03-29T13:17:04;23.60;67.90
2363;DHT22;64265;51.664;7.626;2024-03-29T13:19:35;23.60;68.20
2363;DHT22;64265;51.664;7.626;2024-03-29T13:22:02;23.60;68.10
2363;DHT22;64265;51.664;7.626;2024-03-29T13:24:36;23.60;67.90
2363;DHT22;64265;51.664;7.626;2024-03-29T13:27:09;23.60;67.60
2363;DHT22;64265;51.664;7.626;2024-03-29T13:29:41;23.60;67.60
2363;DHT22;64265;51.664;7.626;2024-03-29T13:32:17;23.60;67.40
2363;DHT22;64265;51.664;7.626;2024-03-29T13:34:48;23.50;67.00
2363;DHT22;64265;51.664;7.626;2024-03-29T13:37:18;23.60;67.20
2363;DHT22;64265;51.664;7.626;2024-03-29T13:42:56;23.60;66.80
2363;DHT22;64265;51.664;7.626;2024-03-29T13:45:28;23.60;67.20
2363;DHT22;64265;51.664;7.626;2024-03-29T13:47:58;23.60;67.90
2363;DHT22;64265;51.664;7.626;2024-03-29T13:50:39;23.60;68.10
2363;DHT22;64265;51.664;7.626;2024-03-29T13:53:46;23.60;67.90
2363;DHT22;64265;51.664;7.626;2024-03-29T13:56:08;23.60;67.20
2363;DHT22;64265;51.664;7.626;2024-03-29T13:58:48;23.70;68.00
2363;DHT22;64265;51.664;7.626;2024-03-29T14:01:25;23.70;67.70
2363;DHT22;64265;51.664;7.626;2024-03-29T14:03:57;23.70;67.90
2363;DHT22;64265;51.664;7.626;2024-03-29T14:06:29;23.70;67.60
2363;DHT22;64265;51.664;7.626;2024-03-29T14:09:02;23.70;68.10
2363;DHT22;64265;51.664;7.626;2024-03-29T14:11:50;23.70;68.00
2363;DHT22;64265;51.664;7.626;2024-03-29T14:14:35;23.80;68.40
2363;DHT22;64265;51.664;7.626;2024-03-29T14:17:02;23.80;68.40
2363;DHT22;64265;51.664;7.626;2024-03-29T14:19:51;23.80;68.00
2363;DHT22;64265;51.664;7.626;2024-03-29T14:22:19;23.80;68.20
2363;DHT22;64265;51.664;7.626;2024-03-29T14:24:49;23.80;67.70
2363;DHT22;64265;51.664;7.626;2024-03-29T14:27:21;23.80;68.00
2363;DHT22;64265;51.664;7.626;2024-03-29T14:30:10;23.80;68.00
2363;DHT22;64265;51.664;7.626;2024-03-29T14:32:53;23.80;68.00
2363;DHT22;64265;51.664;7.626;2024-03-29T14:35:48;23.80;68.00
2363;DHT22;64265;51.664;7.626;2024-03-29T14:38:27;23.70;67.10
2363;DHT22;64265;51.664;7.626;2024-03-29T14:41:00;23.70;67.50
2363;DHT22;64265;51.664;7.626;2024-03-29T14:43:42;23.70;67.60
2363;DHT22;64265;51.664;7.626;2024-03-29T14:46:15;23.70;67.30
2363;DHT22;64265;51.664;7.626;2024-03-29T14:48:51;23.70;67.20
2363;DHT22;64265;51.664;7.626;2024-03-29T14:51:29;23.70;67.40
2363;DHT22;64265;51.664;7.626;2024-03-29T14:54:02;23.80;67.50
2363;DHT22;64265;51.664;7.626;2024-03-29T14:56:46;23.80;67.30
2363;DHT22;64265;51.664;7.626;2024-03-29T14:59:13;23.80;67.30
2363;DHT22;64265;51.664;7.626;2024-03-29T15:01:49;23.80;67.20
2363;DHT22;64265;51.664;7.626;2024-03-29T15:04:18;23.80;66.90
2363;DHT22;64265;51.664;7.626;2024-03-29T15:06:44;23.80;67.10
2363;DHT22;64265;51.664;7.626;2024-03-29T15:09:20;23.80;67.00
2363;DHT22;64265;51.664;7.626;2024-03-29T15:11:50;23.80;66.90
2363;DHT22;64265;51.664;7.626;2024-03-29T15:14:20;23.80;66.90
2363;DHT22;64265;51.664;7.626;2024-03-29T15:16:58;23.80;66.80
2363;DHT22;64265;51.664;7.626;2024-03-29T15:19:30;23.90;67.10
2363;DHT22;64265;51.664;7.626;2024-03-29T15:22:01;23.90;67.10
2363;DHT22;64265;51.664;7.626;2024-03-29T15:24:38;23.90;66.70
2363;DHT22;64265;51.664;7.626;2024-03-29T15:27:17;23.90;67.00
2363;DHT22;64265;51.664;7.626;2024-03-29T15:30:15;23.90;66.80
2363;DHT22;64265;51.664;7.626;2024-03-29T15:32:46;23.90;67.30
2363;DHT22;64265;51.664;7.626;2024-03-29T15:35:13;23.90;67.30
2363;DHT22;64265;51.664;7.626;2024-03-29T15:37:47;23.90;67.30
2363;DHT22;64265;51.664;7.626;2024-03-29T15:40:20;23.90;67.40
2363;DHT22;64265;51.664;7.626;2024-03-29T15:42:54;23.90;67.50
2363;DHT22;64265;51.664;7.626;2024-03-29T15:45:26;24.00;67.50
2363;DHT22;64265;51.664;7.626;2024-03-29T15:48:08;24.00;67.40
2363;DHT22;64265;51.664;7.626;2024-03-29T15:50:40;23.90;67.50
2363;DHT22;64265;51.664;7.626;2024-03-29T15:53:13;23.90;67.20
2363;DHT22;64265;51.664;7.626;2024-03-29T15:55:46;24.00;67.40
2363;DHT22;64265;51.664;7.626;2024-03-29T15:58:15;24.00;67.50
2363;DHT22;64265;51.664;7.626;2024-03-29T16:00:50;24.00;67.40
2363;DHT22;64265;51.664;7.626;2024-03-29T16:15:33;24.00;65.90
2363;DHT22;64265;51.664;7.626;2024-03-29T16:18:04;24.10;67.30
2363;DHT22;64265;51.664;7.626;2024-03-29T16:20:35;24.00;66.70
2363;DHT22;64265;51.664;7.626;2024-03-29T16:23:07;24.00;67.40
2363;DHT22;64265;51.664;7.626;2024-03-29T16:25:41;24.00;67.60
2363;DHT22;64265;51.664;7.626;2024-03-29T16:28:12;24.00;67.40
2363;DHT22;64265;51.664;7.626;2024-03-29T16:30:55;24.00;67.20
2363;DHT22;64265;51.664;7.626;2024-03-29T16:33:28;23.90;66.80
2363;DHT22;64265;51.664;7.626;2024-03-29T16:35:53;23.90;67.10
2363;DHT22;64265;51.664;7.626;2024-03-29T16:38:20;23.90;67.70
2363;DHT22;64265;51.664;7.626;2024-03-29T16:40:46;24.00;67.90
2363;DHT22;64265;51.664;7.626;2024-03-29T16:43:13;23.90;67.10